createdAt,value
2023-02-14T00:03:01.492Z,0.28
2023-02-14T00:08:03.909Z,0.25
2023-02-14T00:13:06.307Z,0.12
2023-02-14T00:18:08.736Z,-0.07
2023-02-14T00:23:11.124Z,-0.40
2023-02-14T00:28:13.555Z,-0.27
2023-02-14T00:33:15.919Z,-0.27
2023-02-14T00:38:18.238Z,-0.49
2023-02-14T00:43:20.539Z,-0.69
2023-02-14T00:48:22.906Z,-0.64
2023-02-14T00:53:25.421Z,-0.59
2023-02-14T00:58:28.073Z,-0.66
2023-02-14T01:03:30.579Z,-0.79
2023-02-14T01:08:33.010Z,-1.01
2023-02-14T01:13:35.357Z,-1.07
2023-02-14T01:18:37.736Z,-0.88
2023-02-14T01:23:40.234Z,-0.61
2023-02-14T01:28:42.730Z,-0.48
2023-02-14T01:33:45.152Z,-0.56
2023-02-14T01:38:47.482Z,-0.97
2023-02-14T01:43:49.791Z,-0.78
2023-02-14T01:48:52.424Z,-0.58
2023-02-14T01:53:54.858Z,-0.64
2023-02-14T01:58:57.294Z,-0.78
2023-02-14T02:03:59.692Z,-0.69
2023-02-14T02:09:02.202Z,-1.18
2023-02-14T02:14:04.655Z,-1.48
2023-02-14T02:19:07.016Z,-1.67
2023-02-14T02:24:09.554Z,-1.70
2023-02-14T02:29:11.916Z,-1.78
2023-02-14T02:34:14.600Z,-1.61
2023-02-14T02:39:16.865Z,-1.20
2023-02-14T02:44:19.136Z,-1.03
2023-02-14T02:49:41.563Z,-0.99
2023-02-14T02:54:43.897Z,-1.28
2023-02-14T02:59:46.210Z,-1.41
2023-02-14T03:04:54.751Z,-1.30
2023-02-14T03:09:58.122Z,-1.50
2023-02-14T03:15:00.463Z,-1.48
2023-02-14T03:20:15.061Z,-1.33
2023-02-14T03:25:17.582Z,-1.22
2023-02-14T03:30:20.006Z,-1.48
2023-02-14T03:35:22.554Z,-1.78
2023-02-14T03:40:24.895Z,-1.95
2023-02-14T03:45:27.792Z,-1.93
2023-02-14T03:50:30.162Z,-1.75
2023-02-14T03:55:32.558Z,-1.86
2023-02-14T04:00:34.934Z,-2.01
2023-02-14T04:05:38.494Z,-1.79
2023-02-14T04:10:43.167Z,-1.56
2023-02-14T04:15:45.461Z,-1.74
2023-02-14T04:20:47.766Z,-1.73
2023-02-14T04:25:50.160Z,-1.73
2023-02-14T04:30:52.504Z,-1.55
2023-02-14T04:35:54.808Z,-1.23
2023-02-14T04:40:57.361Z,-1.15
2023-02-14T04:46:00.011Z,-0.92
2023-02-14T04:51:02.631Z,-1.02
2023-02-14T04:56:04.938Z,-1.15
2023-02-14T05:01:07.421Z,-0.96
2023-02-14T05:06:09.967Z,-1.06
2023-02-14T05:11:12.247Z,-0.90
2023-02-14T05:16:14.595Z,-0.85
2023-02-14T05:21:17.171Z,-0.80
2023-02-14T05:26:19.652Z,-1.03
2023-02-14T05:31:22.588Z,-1.07
2023-02-14T05:36:24.975Z,-1.04
2023-02-14T05:41:27.246Z,-1.02
2023-02-14T05:46:29.613Z,-1.00
2023-02-14T05:51:31.895Z,-1.12
2023-02-14T05:56:34.186Z,-1.07
2023-02-14T06:01:36.572Z,-0.97
2023-02-14T06:06:38.982Z,-0.99
2023-02-14T06:11:41.334Z,-0.93
2023-02-14T06:16:43.729Z,-1.12
2023-02-14T06:21:46.273Z,-0.94
2023-02-14T06:26:48.610Z,-1.10
2023-02-14T06:31:51.043Z,-0.96
2023-02-14T06:36:53.495Z,-1.05
2023-02-14T06:41:55.824Z,-0.92
2023-02-14T06:46:58.133Z,-0.94
2023-02-14T06:52:00.654Z,-1.25
2023-02-14T06:57:03.156Z,-1.23
2023-02-14T07:02:05.487Z,-1.16
2023-02-14T07:07:07.791Z,-1.09
2023-02-14T07:12:10.216Z,-0.94
2023-02-14T07:17:12.537Z,-0.92
2023-02-14T07:22:14.848Z,-0.59
2023-02-14T07:27:17.175Z,-0.43
2023-02-14T07:32:20.047Z,-0.31
2023-02-14T07:37:22.785Z,-0.36
2023-02-14T07:42:25.080Z,-0.32
2023-02-14T07:47:27.671Z,0.08
2023-02-14T07:52:29.932Z,0.17
2023-02-14T07:57:32.537Z,0.29
2023-02-14T08:02:35.703Z,0.36
2023-02-14T08:07:38.082Z,0.88
2023-02-14T08:12:58.198Z,0.99
2023-02-14T08:18:00.612Z,0.81
2023-02-14T08:23:02.986Z,1.09
2023-02-14T08:28:05.369Z,1.43
2023-02-14T08:33:07.778Z,1.24
2023-02-14T08:38:10.409Z,1.31
2023-02-14T08:43:12.885Z,1.20
2023-02-14T08:48:15.360Z,0.98
2023-02-14T08:53:17.651Z,0.52
2023-02-14T08:58:20.184Z,0.51
2023-02-14T09:03:22.542Z,0.74
2023-02-14T09:08:25.194Z,0.87
2023-02-14T09:13:27.601Z,1.26
2023-02-14T09:18:30.039Z,1.30
2023-02-14T09:23:32.348Z,1.28
2023-02-14T09:28:34.822Z,0.84
2023-02-14T09:33:37.135Z,1.46
2023-02-14T09:38:39.471Z,1.53
2023-02-14T09:43:42.045Z,1.25
2023-02-14T09:48:44.638Z,1.54
2023-02-14T09:53:46.996Z,1.58
2023-02-14T09:58:49.407Z,1.84
2023-02-14T10:03:51.703Z,1.89
2023-02-14T10:08:55.282Z,1.81
2023-02-14T10:13:57.649Z,1.78
2023-02-14T10:19:00.033Z,2.03
2023-02-14T10:24:02.470Z,2.01
2023-02-14T10:29:04.951Z,1.76
2023-02-14T10:34:07.263Z,1.35
2023-02-14T10:39:09.785Z,1.54
2023-02-14T10:44:13.516Z,1.61
2023-02-14T10:49:16.057Z,1.20
2023-02-14T10:54:18.630Z,1.32
2023-02-14T10:59:21.862Z,1.38
2023-02-14T11:04:24.353Z,1.59
2023-02-14T11:09:26.753Z,1.46
2023-02-14T11:14:30.141Z,1.40
2023-02-14T11:19:34.112Z,1.56
2023-02-14T11:24:37.590Z,1.32
2023-02-14T11:29:40.009Z,1.55
2023-02-14T11:34:42.343Z,1.21
2023-02-14T11:39:44.728Z,1.41
2023-02-14T11:44:47.034Z,1.28
2023-02-14T11:49:49.471Z,1.45
2023-02-14T11:54:51.854Z,1.68
2023-02-14T11:59:54.302Z,1.78
2023-02-14T12:04:56.785Z,1.67
2023-02-14T12:10:00.241Z,1.93
2023-02-14T12:15:02.680Z,1.87
2023-02-14T12:20:05.275Z,2.04
2023-02-14T12:25:08.479Z,2.11
2023-02-14T12:30:12.559Z,2.38
2023-02-14T12:35:14.862Z,2.25
2023-02-14T12:40:17.321Z,2.52
2023-02-14T12:45:19.803Z,2.48
2023-02-14T12:50:22.107Z,2.55
2023-02-14T12:55:24.410Z,2.51
2023-02-14T13:00:26.726Z,2.39
2023-02-14T13:05:29.321Z,2.34
2023-02-14T13:10:31.664Z,2.42
2023-02-14T13:15:34.036Z,2.54
2023-02-14T13:20:36.369Z,2.62
2023-02-14T13:25:40.452Z,2.70
2023-02-14T13:30:43.135Z,2.81
2023-02-14T13:35:45.633Z,2.83
2023-02-14T13:40:47.980Z,2.87
2023-02-14T13:45:50.271Z,2.86
2023-02-14T13:50:52.868Z,2.77
2023-02-14T13:55:55.967Z,2.74
2023-02-14T14:00:58.410Z,2.61
2023-02-14T14:06:01.229Z,2.31
2023-02-14T14:11:03.822Z,2.41
2023-02-14T14:16:06.176Z,2.42
2023-02-14T14:21:08.614Z,2.40
2023-02-14T14:26:11.236Z,2.14
2023-02-14T14:31:13.937Z,2.04
2023-02-14T14:36:16.410Z,1.99
2023-02-14T14:41:19.169Z,1.86
2023-02-14T14:46:21.703Z,1.80
2023-02-14T14:51:24.131Z,1.83
2023-02-14T14:56:26.551Z,1.94
2023-02-14T15:01:29.087Z,1.87
2023-02-14T15:06:31.596Z,1.82
2023-02-14T15:11:51.535Z,1.79
2023-02-14T15:16:53.946Z,1.59
2023-02-14T15:21:56.498Z,1.61
2023-02-14T15:26:58.955Z,1.56
2023-02-14T15:32:03.146Z,1.61
2023-02-14T15:37:06.877Z,1.45
2023-02-14T15:42:09.745Z,1.35
2023-02-14T15:47:12.191Z,1.23
2023-02-14T15:52:14.801Z,1.08
2023-02-14T15:57:17.377Z,0.96
2023-02-14T16:02:19.781Z,0.82
2023-02-14T16:07:22.462Z,0.70
2023-02-14T16:12:25.030Z,0.46
2023-02-14T16:17:29.400Z,0.23
2023-02-14T16:22:32.221Z,0.11
2023-02-14T16:27:34.700Z,0.07
2023-02-14T16:32:38.554Z,0.05
2023-02-14T16:37:41.023Z,0.01
2023-02-14T16:42:43.496Z,0.07
2023-02-14T16:47:47.017Z,0.17
2023-02-14T16:52:49.370Z,0.20
2023-02-14T16:57:51.827Z,0.10
2023-02-14T17:03:04.630Z,-0.07
2023-02-14T17:08:07.083Z,-0.12
2023-02-14T17:13:09.437Z,-0.32
2023-02-14T17:18:11.730Z,-0.45
2023-02-14T17:23:14.107Z,-0.25
2023-02-14T17:28:16.407Z,-0.20
2023-02-14T17:33:19.847Z,-0.39
2023-02-14T17:38:22.355Z,-0.40
2023-02-14T17:43:25.154Z,-0.34
2023-02-14T17:48:27.721Z,-0.24
2023-02-14T17:53:30.315Z,-0.17
2023-02-14T17:58:32.905Z,-0.24
2023-02-14T18:03:35.384Z,-0.24
2023-02-14T18:08:37.886Z,-0.21
2023-02-14T18:13:40.299Z,-0.49
2023-02-14T18:18:42.589Z,-0.64
2023-02-14T18:23:45.246Z,-0.58
2023-02-14T18:28:47.866Z,-0.57
2023-02-14T18:33:50.300Z,-0.52
2023-02-14T18:38:52.669Z,-0.49
2023-02-14T18:43:54.972Z,-0.50
2023-02-14T18:48:57.414Z,-0.44
2023-02-14T18:53:59.711Z,-0.42
2023-02-14T18:59:02.118Z,-0.55
2023-02-14T19:04:06.026Z,-0.44
2023-02-14T19:09:08.561Z,-0.49
2023-02-14T19:14:11.099Z,-0.57
2023-02-14T19:19:13.536Z,-0.52
2023-02-14T19:24:16.507Z,-0.55
2023-02-14T19:29:19.205Z,-0.81
2023-02-14T19:34:21.859Z,-0.95
2023-02-14T19:39:24.596Z,-0.88
2023-02-14T19:44:28.721Z,-0.96
2023-02-14T19:49:32.136Z,-0.74
2023-02-14T19:54:34.593Z,-0.95
2023-02-14T19:59:37.389Z,-0.79
2023-02-14T20:04:39.897Z,-0.97
2023-02-14T20:09:43.078Z,-1.04
2023-02-14T20:14:51.435Z,-0.95
2023-02-14T20:19:55.122Z,-0.82
2023-02-14T20:24:58.051Z,-0.82
2023-02-14T20:30:01.439Z,-0.78
2023-02-14T20:35:05.053Z,-0.68
2023-02-14T20:40:09.933Z,-0.78
2023-02-14T20:45:12.826Z,-0.90
2023-02-14T20:50:15.704Z,-1.09
2023-02-14T20:55:18.446Z,-1.41
2023-02-14T21:00:20.937Z,-1.51
2023-02-14T21:05:23.337Z,-1.60
2023-02-14T21:10:25.855Z,-1.31
2023-02-14T21:15:28.794Z,-1.06
2023-02-14T21:20:31.230Z,-1.05
2023-02-14T21:25:33.775Z,-1.18
2023-02-14T21:30:36.367Z,-0.98
2023-02-14T21:35:38.765Z,-1.34
2023-02-14T21:40:41.179Z,-1.30
2023-02-14T21:45:57.066Z,-1.21
2023-02-14T21:50:59.973Z,-1.20
2023-02-14T21:56:02.653Z,-1.10
2023-02-14T22:01:05.153Z,-1.20
2023-02-14T22:06:10.127Z,-1.25
2023-02-14T22:11:12.458Z,-1.15
2023-02-14T22:16:15.071Z,-1.31
2023-02-14T22:21:17.547Z,-1.26
2023-02-14T22:26:19.937Z,-1.50
2023-02-14T22:31:22.361Z,-1.53
2023-02-14T22:36:25.040Z,-1.66
2023-02-14T22:41:27.453Z,-1.61
2023-02-14T22:46:29.895Z,-1.61
2023-02-14T22:51:32.479Z,-1.59
2023-02-14T22:56:35.178Z,-1.65
2023-02-14T23:01:37.697Z,-1.64
2023-02-14T23:06:40.064Z,-1.84
2023-02-14T23:11:42.470Z,-1.63
2023-02-14T23:17:02.289Z,-1.88
2023-02-14T23:22:04.698Z,-2.00
2023-02-14T23:27:06.988Z,-1.79
2023-02-14T23:32:09.441Z,-1.76
2023-02-14T23:37:11.853Z,-1.99
2023-02-14T23:42:14.565Z,-2.15
2023-02-14T23:47:17.013Z,-2.00
2023-02-14T23:52:19.330Z,-1.97
2023-02-14T23:57:21.794Z,-2.02
